Time;durP1;ratioP1;P1;durP2;ratioP2;P2;SDS_P1;SDS_P2;PMS_P1;PMS_P2;Temp;Humidity;BMP_temperature;BMP_pressure;BME280_temperature;BME280_humidity;BME280_pressure;Samples;Min_cycle;Max_cycle;Signal;HPM_P1;HPM_P2
2022/04/08 00:00:28;;;;;;;6.00;2.10;;;17.60;56.50;;;;;;4952928;28;20655;-57
2022/04/08 00:03:00;;;;;;;5.18;2.15;;;17.60;56.40;;;;;;4953045;28;20880;-57
2022/04/08 00:05:31;;;;;;;3.95;1.98;;;17.60;56.50;;;;;;4952768;28;20238;-57
2022/04/08 00:08:01;;;;;;;3.72;1.98;;;17.70;56.50;;;;;;4952345;28;20290;-57
2022/04/08 00:10:32;;;;;;;4.22;1.88;;;17.70;56.50;;;;;;4953428;28;20337;-57
2022/04/08 00:13:02;;;;;;;4.05;1.67;;;17.70;56.50;;;;;;4953082;28;20565;-57
2022/04/08 00:15:36;;;;;;;5.40;2.00;;;17.80;56.50;;;;;;4953517;28;20217;-56
2022/04/08 00:18:08;;;;;;;3.63;2.05;;;17.80;56.50;;;;;;4952931;28;20206;-57
2022/04/08 00:20:39;;;;;;;4.22;1.80;;;17.90;56.50;;;;;;4952999;28;20219;-57
2022/04/08 00:23:10;;;;;;;4.30;1.80;;;17.90;56.50;;;;;;4952934;28;20565;-57
2022/04/08 00:25:40;;;;;;;4.38;2.20;;;17.90;56.50;;;;;;4952659;28;20199;-57
2022/04/08 00:28:11;;;;;;;4.20;2.10;;;17.90;56.50;;;;;;4952500;28;20205;-57
2022/04/08 00:30:41;;;;;;;3.80;2.05;;;18.00;56.60;;;;;;4952748;28;20309;-56
2022/04/08 00:33:13;;;;;;;2.95;1.63;;;18.00;56.50;;;;;;4952851;28;20286;-57
2022/04/08 00:35:44;;;;;;;4.70;2.38;;;18.00;56.50;;;;;;4952964;28;20282;-57
2022/04/08 00:38:14;;;;;;;4.45;2.00;;;18.10;56.50;;;;;;4951662;28;20290;-58
2022/04/08 00:40:45;;;;;;;3.60;1.70;;;18.10;56.60;;;;;;4952321;28;20570;-57
2022/04/08 00:43:16;;;;;;;2.17;1.70;;;18.10;56.60;;;;;;4952192;28;20282;-57
2022/04/08 00:45:47;;;;;;;4.10;2.00;;;18.20;56.60;;;;;;4952676;28;20290;-58
2022/04/08 00:48:20;;;;;;;4.25;1.70;;;18.20;56.60;;;;;;4951903;28;20286;-58
2022/04/08 00:50:50;;;;;;;4.50;1.80;;;18.30;56.70;;;;;;4952142;28;20707;-57
2022/04/08 00:53:22;;;;;;;2.47;1.85;;;18.30;56.70;;;;;;4951063;28;20282;-58
2022/04/08 00:55:52;;;;;;;2.20;1.48;;;18.30;56.70;;;;;;4951841;28;20282;-58
2022/04/08 00:58:23;;;;;;;2.17;1.35;;;18.40;56.90;;;;;;4952105;28;20282;-58
2022/04/08 01:00:54;;;;;;;3.40;1.50;;;18.40;56.80;;;;;;4951850;28;20277;-58
2022/04/08 01:03:26;;;;;;;3.83;2.20;;;18.40;56.80;;;;;;4951734;28;20203;-58
2022/04/08 01:05:56;;;;;;;3.20;1.55;;;18.40;57.40;;;;;;4952004;28;20278;-58
2022/04/08 01:08:27;;;;;;;3.85;1.50;;;18.50;56.90;;;;;;4952814;28;20336;-58
2022/04/08 01:10:59;;;;;;;3.78;1.70;;;18.50;56.80;;;;;;4952589;28;20660;-57
2022/04/08 01:13:30;;;;;;;2.90;1.85;;;18.50;56.80;;;;;;4951634;28;20206;-57
2022/04/08 01:16:00;;;;;;;2.92;1.70;;;18.60;56.80;;;;;;4952303;28;20294;-57
2022/04/08 01:18:32;;;;;;;3.20;1.88;;;18.60;56.80;;;;;;4951962;28;20281;-58
2022/04/08 01:21:06;;;;;;;3.03;1.60;;;18.70;56.80;;;;;;4951925;28;20746;-58
2022/04/08 01:23:38;;;;;;;4.00;1.83;;;18.70;56.80;;;;;;4951687;28;20195;-58
2022/04/08 01:26:14;;;;;;;3.55;1.95;;;18.80;56.80;;;;;;4951150;28;20286;-58
2022/04/08 01:28:46;;;;;;;3.28;1.80;;;18.80;56.90;;;;;;4951027;28;20218;-57
2022/04/08 01:31:17;;;;;;;4.40;2.53;;;18.90;57.00;;;;;;4950295;28;20231;-57
2022/04/08 01:33:48;;;;;;;5.43;2.88;;;18.90;57.00;;;;;;4951428;28;20195;-58
2022/04/08 01:36:19;;;;;;;4.05;2.38;;;18.90;57.00;;;;;;4951590;28;20285;-57
2022/04/08 01:38:49;;;;;;;3.63;2.47;;;19.00;57.10;;;;;;4950717;28;20309;-58
2022/04/08 01:41:21;;;;;;;3.13;2.50;;;19.00;57.10;;;;;;4951071;28;20286;-58
2022/04/08 01:43:52;;;;;;;6.13;2.60;;;19.10;57.20;;;;;;4950942;28;20285;-57
2022/04/08 01:46:22;;;;;;;4.63;2.75;;;19.10;57.20;;;;;;4951233;28;20285;-58
2022/04/08 01:48:54;;;;;;;4.15;2.42;;;19.10;57.10;;;;;;4950229;28;20310;-58
2022/04/08 01:51:25;;;;;;;3.25;2.25;;;19.20;57.20;;;;;;4950373;28;20218;-58
2022/04/08 01:53:56;;;;;;;3.85;2.35;;;19.20;57.30;;;;;;4951352;28;20199;-58
2022/04/08 01:56:28;;;;;;;3.25;2.10;;;19.30;57.20;;;;;;4950732;28;20298;-57
2022/04/08 01:58:58;;;;;;;4.82;2.10;;;19.30;57.10;;;;;;4952579;28;20302;-57
2022/04/08 02:01:29;;;;;;;4.38;2.80;;;19.30;57.00;;;;;;4950860;28;20683;-58
2022/04/08 02:03:59;;;;;;;3.53;2.35;;;19.40;57.60;;;;;;4950585;28;20302;-57
2022/04/08 02:06:30;;;;;;;3.90;2.42;;;19.40;57.80;;;;;;4951384;28;20278;-57
2022/04/08 02:09:00;;;;;;;3.97;2.33;;;19.50;57.60;;;;;;4950653;28;20249;-58
2022/04/08 02:11:33;;;;;;;3.22;1.98;;;19.50;57.50;;;;;;4950571;28;20649;-57
2022/04/08 02:14:03;;;;;;;4.35;2.40;;;19.60;57.50;;;;;;4950923;28;20278;-57
2022/04/08 02:16:34;;;;;;;5.03;2.40;;;19.60;57.40;;;;;;4967801;23;20247;-59
2022/04/08 02:19:04;;;;;;;4.63;2.20;;;19.70;57.30;;;;;;4950762;28;20301;-58
2022/04/08 02:21:36;;;;;;;3.08;1.77;;;19.70;57.30;;;;;;4950463;28;20203;-57
2022/04/08 02:24:06;;;;;;;4.93;2.40;;;19.70;57.30;;;;;;4950413;28;20294;-58
2022/04/08 02:26:39;;;;;;;3.45;2.42;;;19.80;57.40;;;;;;4950155;28;20207;-57
2022/04/08 02:29:09;;;;;;;3.85;2.10;;;19.80;57.30;;;;;;4937477;28;20761;-59
2022/04/08 02:31:40;;;;;;;5.05;2.20;;;19.80;57.20;;;;;;4940730;29;20245;-59
2022/04/08 02:34:11;;;;;;;2.63;1.70;;;19.90;57.20;;;;;;4950777;28;20222;-59
2022/04/08 02:36:41;;;;;;;3.72;2.05;;;19.90;57.10;;;;;;4950726;28;20290;-58
2022/04/08 02:39:12;;;;;;;3.55;1.98;;;20.00;57.00;;;;;;4937182;28;20302;-58
2022/04/08 02:41:44;;;;;;;3.13;1.95;;;20.00;56.80;;;;;;4931910;29;20207;-60
2022/04/08 02:44:15;;;;;;;4.53;1.90;;;20.10;56.70;;;;;;4931205;29;20280;-58
2022/04/08 02:46:45;;;;;;;3.47;1.77;;;20.10;56.60;;;;;;4931282;29;20282;-59
2022/04/08 02:49:16;;;;;;;3.63;2.25;;;20.10;56.60;;;;;;4931487;29;20306;-60
2022/04/08 02:51:46;;;;;;;4.32;2.00;;;20.20;56.50;;;;;;4939175;29;20306;-59
2022/04/08 02:54:17;;;;;;;3.17;1.80;;;20.20;56.50;;;;;;4935535;29;20226;-58
2022/04/08 02:56:49;;;;;;;3.22;2.05;;;20.20;56.40;;;;;;4934654;28;20192;-58
2022/04/08 02:59:19;;;;;;;2.90;1.88;;;20.30;56.30;;;;;;4931726;29;20307;-60
2022/04/08 03:01:50;;;;;;;4.22;2.13;;;20.30;56.40;;;;;;4931066;29;20310;-59
2022/04/08 03:04:20;;;;;;;3.80;2.15;;;20.40;56.20;;;;;;4914267;29;20304;-60
2022/04/08 03:06:51;;;;;;;7.07;1.92;;;20.40;56.30;;;;;;4913158;29;20283;-61
2022/04/08 03:09:21;;;;;;;3.25;1.80;;;20.50;56.30;;;;;;4912292;29;20851;-61
2022/04/08 03:11:54;;;;;;;3.10;1.52;;;20.50;56.30;;;;;;4911967;29;20277;-63
2022/04/08 03:14:27;;;;;;;3.80;1.95;;;20.50;56.20;;;;;;4911997;29;20787;-63
2022/04/08 03:16:58;;;;;;;3.47;1.80;;;20.50;56.20;;;;;;4911700;29;20299;-60
2022/04/08 03:19:28;;;;;;;3.35;1.70;;;20.60;56.20;;;;;;4924454;29;20302;-59
2022/04/08 03:21:59;;;;;;;4.57;1.77;;;20.60;56.10;;;;;;4932626;29;20295;-58
2022/04/08 03:24:30;;;;;;;3.38;1.70;;;20.70;56.10;;;;;;4932523;29;20200;-60
2022/04/08 03:27:02;;;;;;;4.38;1.75;;;20.70;56.00;;;;;;4935614;29;20200;-57
2022/04/08 03:29:33;;;;;;;3.47;1.63;;;20.70;56.00;;;;;;4944698;28;20310;-61
2022/04/08 03:32:03;;;;;;;4.18;1.77;;;20.80;56.10;;;;;;4953406;28;20321;-61
2022/04/08 03:34:34;;;;;;;3.80;1.88;;;20.80;56.10;;;;;;4952511;28;20293;-61
2022/04/08 03:37:04;;;;;;;4.80;2.08;;;20.90;56.10;;;;;;4953423;28;20285;-60
2022/04/08 03:39:35;;;;;;;5.13;1.73;;;20.90;56.10;;;;;;4952774;28;20238;-63
2022/04/08 03:42:08;;;;;;;4.22;2.05;;;21.00;56.80;;;;;;4953586;28;20203;-63
2022/04/08 03:44:38;;;;;;;4.43;1.48;;;21.00;56.30;;;;;;4953077;28;20622;-62
2022/04/08 03:47:09;;;;;;;5.10;1.60;;;21.10;56.40;;;;;;4953728;28;20195;-63
2022/04/08 03:49:42;;;;;;;3.35;1.60;;;21.10;56.20;;;;;;4953243;28;20303;-62
2022/04/08 03:52:13;;;;;;;3.45;1.50;;;21.20;56.10;;;;;;4953263;28;20329;-63
2022/04/08 03:54:44;;;;;;;3.03;1.52;;;21.30;56.10;;;;;;4953379;28;20206;-59
2022/04/08 03:57:16;;;;;;;6.68;1.98;;;21.30;56.10;;;;;;4953392;28;20675;-60
2022/04/08 03:59:47;;;;;;;9.50;1.85;;;21.40;56.10;;;;;;4952897;28;20306;-59
2022/04/08 04:02:18;;;;;;;4.78;1.58;;;21.40;56.10;;;;;;4952840;28;20804;-59
2022/04/08 04:04:49;;;;;;;4.85;1.50;;;21.50;56.10;;;;;;4952546;28;20719;-58
2022/04/08 04:07:19;;;;;;;5.60;1.73;;;21.60;56.60;;;;;;4952998;29;20303;-59
2022/04/08 04:09:50;;;;;;;5.05;1.80;;;21.70;56.10;;;;;;4945522;28;20310;-59
2022/04/08 04:12:22;;;;;;;5.53;1.75;;;21.70;56.00;;;;;;4933342;29;20287;-59
2022/04/08 04:38:22;;;;;;;3.35;1.80;;;22.20;55.10;;;;;;5638979;23;20237;-59
2022/04/08 04:40:56;;;;;;;4.78;1.90;;;22.30;55.10;;;;;;4931377;29;20544;-59
2022/04/08 04:43:31;;;;;;;4.32;1.83;;;22.30;55.00;;;;;;4932063;29;20534;-61
2022/04/08 04:46:03;;;;;;;4.20;1.77;;;22.30;55.00;;;;;;4931948;29;20318;-60
2022/04/08 04:48:33;;;;;;;3.28;1.58;;;22.30;55.00;;;;;;4933570;29;20196;-60
2022/04/08 04:51:04;;;;;;;5.07;1.98;;;22.30;54.90;;;;;;4932652;29;20721;-57
2022/04/08 04:53:36;;;;;;;4.00;1.70;;;22.40;54.60;;;;;;4933813;29;20282;-60
2022/04/08 04:56:07;;;;;;;4.88;1.70;;;22.40;54.60;;;;;;4933304;29;20242;-60
2022/04/08 04:58:37;;;;;;;4.85;1.73;;;22.40;54.60;;;;;;4932543;29;20282;-60
2022/04/08 05:01:10;;;;;;;4.15;1.95;;;22.40;54.60;;;;;;4932286;29;20195;-60
2022/04/08 05:03:40;;;;;;;4.05;1.55;;;22.40;54.60;;;;;;4932961;29;20202;-59
2022/04/08 05:06:11;;;;;;;4.05;1.67;;;22.40;54.60;;;;;;4933055;29;20286;-60
2022/04/08 05:08:43;;;;;;;6.60;2.05;;;22.40;54.70;;;;;;4932959;29;20287;-58
2022/04/08 05:11:15;;;;;;;3.92;1.73;;;22.40;54.70;;;;;;4932944;29;20323;-59
2022/04/08 05:13:46;;;;;;;5.55;1.98;;;22.40;55.10;;;;;;4931834;29;20203;-58
2022/04/08 05:16:16;;;;;;;9.35;3.40;;;22.40;54.50;;;;;;4932966;29;20204;-55
2022/04/08 05:18:47;;;;;;;11.93;3.80;;;22.40;54.40;;;;;;4932542;29;20318;-59
2022/04/08 05:21:18;;;;;;;11.32;4.28;;;22.40;54.50;;;;;;4932582;29;20213;-58
2022/04/08 05:23:50;;;;;;;12.00;3.70;;;22.40;54.40;;;;;;4932090;29;20294;-58
2022/04/08 05:26:20;;;;;;;14.63;4.50;;;22.40;54.30;;;;;;4932391;29;20200;-55
2022/04/08 05:28:51;;;;;;;10.68;4.63;;;22.40;54.30;;;;;;4932428;29;20633;-55
2022/04/08 05:31:21;;;;;;;12.45;4.10;;;22.40;54.30;;;;;;4932214;29;20691;-59
2022/04/08 05:33:52;;;;;;;9.43;3.75;;;22.40;54.30;;;;;;4932195;29;20290;-60
2022/04/08 05:36:22;;;;;;;12.23;5.00;;;22.40;54.30;;;;;;4932405;29;20227;-55
2022/04/08 05:38:54;;;;;;;13.10;5.03;;;22.40;54.30;;;;;;4931897;29;20679;-57
2022/04/08 05:41:25;;;;;;;13.88;4.57;;;22.40;54.30;;;;;;4931679;29;20200;-56
2022/04/08 05:43:55;;;;;;;11.07;4.43;;;22.40;54.20;;;;;;4932394;29;20206;-59
2022/04/08 05:46:26;;;;;;;8.88;4.10;;;22.40;54.30;;;;;;4931919;29;20275;-60
2022/04/08 05:48:56;;;;;;;10.95;4.40;;;22.40;54.20;;;;;;4931692;29;20303;-58
2022/04/08 05:51:27;;;;;;;9.68;3.88;;;22.40;54.30;;;;;;4931936;29;20219;-60
2022/04/08 05:53:59;;;;;;;8.85;4.10;;;22.40;54.30;;;;;;4931555;29;20234;-55
2022/04/08 05:56:29;;;;;;;15.63;4.57;;;22.40;54.30;;;;;;4932429;29;20196;-57
2022/04/08 05:59:00;;;;;;;10.90;4.47;;;22.40;54.30;;;;;;4931026;29;20294;-58
2022/04/08 06:01:30;;;;;;;7.90;3.53;;;22.40;54.30;;;;;;4932093;29;20192;-59
2022/04/08 06:04:01;;;;;;;10.68;4.05;;;22.40;54.30;;;;;;4931900;29;20278;-59
2022/04/08 06:06:31;;;;;;;9.15;4.50;;;22.40;54.30;;;;;;4931702;29;20200;-60
2022/04/08 06:09:04;;;;;;;8.10;3.38;;;22.40;54.30;;;;;;4931788;29;20310;-59
2022/04/08 06:11:34;;;;;;;9.40;3.90;;;22.40;54.30;;;;;;4931544;29;20592;-60
2022/04/08 06:14:05;;;;;;;8.82;3.60;;;22.40;54.30;;;;;;4931593;29;20198;-58
2022/04/08 06:16:35;;;;;;;12.52;4.40;;;22.40;54.30;;;;;;4962665;23;20310;-59
2022/04/08 06:19:05;;;;;;;7.40;3.42;;;22.30;54.30;;;;;;4950415;28;20226;-59
2022/04/08 06:21:36;;;;;;;10.32;3.95;;;22.30;54.30;;;;;;4948150;28;20316;-59
2022/04/08 06:24:09;;;;;;;11.18;3.35;;;22.30;54.30;;;;;;4951040;28;20234;-59
2022/04/08 06:26:39;;;;;;;5.68;3.00;;;22.30;54.20;;;;;;4951057;28;20897;-60
2022/04/08 06:29:10;;;;;;;8.23;3.95;;;22.30;54.20;;;;;;4950392;28;20698;-59
2022/04/08 06:31:41;;;;;;;8.82;3.83;;;22.30;54.20;;;;;;4950444;28;20863;-59
2022/04/08 06:34:11;;;;;;;9.25;3.90;;;22.30;54.20;;;;;;4951154;28;20286;-59
2022/04/08 06:36:42;;;;;;;9.88;3.95;;;22.20;54.10;;;;;;4950040;28;20278;-59
2022/04/08 06:39:14;;;;;;;8.95;4.35;;;22.20;54.20;;;;;;4950071;28;20302;-59
2022/04/08 06:41:45;;;;;;;7.93;3.97;;;22.20;54.20;;;;;;4949618;28;20278;-59
2022/04/08 06:44:16;;;;;;;9.80;3.90;;;22.20;54.30;;;;;;4949577;28;20203;-59
2022/04/08 06:46:46;;;;;;;7.93;3.63;;;22.20;54.30;;;;;;4950430;28;20203;-60
2022/04/08 06:49:19;;;;;;;9.23;3.75;;;22.10;54.30;;;;;;4949806;28;20750;-59
2022/04/08 06:51:50;;;;;;;8.32;4.10;;;22.10;54.30;;;;;;4949239;29;20230;-59
2022/04/08 06:54:22;;;;;;;11.02;3.85;;;22.10;54.40;;;;;;4949995;28;20202;-59
2022/04/08 06:56:52;;;;;;;6.82;3.20;;;22.10;54.40;;;;;;4949305;28;20726;-59
2022/04/08 06:59:23;;;;;;;8.55;3.50;;;22.10;54.40;;;;;;4949790;28;20583;-59
2022/04/08 07:01:53;;;;;;;9.95;3.95;;;22.10;54.40;;;;;;4953455;28;20278;-59
2022/04/08 07:04:25;;;;;;;10.05;3.90;;;22.00;54.30;;;;;;4954311;28;20286;-59
2022/04/08 07:06:56;;;;;;;6.88;3.58;;;22.00;54.30;;;;;;4954431;28;20289;-59
2022/04/08 07:09:30;;;;;;;8.25;3.40;;;22.00;54.30;;;;;;4951630;28;20309;-59
2022/04/08 07:12:01;;;;;;;6.97;3.60;;;22.00;54.30;;;;;;4953759;28;20221;-59
2022/04/08 07:14:31;;;;;;;8.50;3.30;;;21.90;54.30;;;;;;4954307;28;20277;-59
2022/04/08 08:11:29;;;;;;;5.57;2.70;;;21.40;54.50;;;;;;5951836;23;20185;-58
2022/04/08 08:14:10;;;;;;;5.10;2.88;;;21.40;54.50;;;;;;4954565;28;20519;-59
2022/04/08 08:16:41;;;;;;;6.47;3.10;;;21.30;54.50;;;;;;4954382;28;20558;-60
2022/04/08 08:19:11;;;;;;;5.50;2.70;;;21.30;54.60;;;;;;4952327;28;20294;-60
2022/04/08 08:21:41;;;;;;;6.47;3.15;;;21.20;54.60;;;;;;4953957;28;20707;-60
2022/04/08 08:24:15;;;;;;;6.45;3.28;;;21.20;54.60;;;;;;4953955;28;20630;-60
2022/04/08 08:26:47;;;;;;;4.22;2.83;;;21.20;54.60;;;;;;4953712;28;20554;-59
2022/04/08 08:29:18;;;;;;;7.03;3.13;;;21.20;54.60;;;;;;4953716;28;20675;-60
2022/04/08 08:31:48;;;;;;;6.30;3.00;;;21.20;54.60;;;;;;4954073;28;20314;-59
2022/04/08 08:34:19;;;;;;;6.53;2.58;;;21.20;54.70;;;;;;4954215;28;20206;-61
2022/04/08 08:36:49;;;;;;;5.85;2.97;;;21.20;54.70;;;;;;4954175;28;20209;-59
2022/04/08 08:39:20;;;;;;;6.30;2.92;;;21.20;54.70;;;;;;4954130;28;20298;-59
2022/04/08 08:41:53;;;;;;;6.18;2.63;;;21.10;54.70;;;;;;4953998;28;20297;-59
2022/04/08 08:44:23;;;;;;;5.90;3.00;;;21.10;54.70;;;;;;4954392;28;20290;-59
2022/04/08 08:46:56;;;;;;;5.80;2.70;;;21.10;54.70;;;;;;4953211;28;20282;-61
2022/04/08 08:49:28;;;;;;;4.53;2.30;;;21.10;54.70;;;;;;4953450;28;20298;-58
2022/04/08 08:52:01;;;;;;;5.80;3.00;;;21.00;54.70;;;;;;4953733;28;20322;-59
2022/04/08 08:54:31;;;;;;;4.40;2.45;;;21.00;54.70;;;;;;4953693;28;20230;-60
2022/04/08 08:57:06;;;;;;;4.20;2.63;;;21.00;54.70;;;;;;4953491;28;20675;-59
2022/04/08 08:59:37;;;;;;;6.13;2.78;;;21.00;54.80;;;;;;4953480;28;20302;-59
2022/04/08 09:02:07;;;;;;;4.05;2.70;;;20.90;54.70;;;;;;4953114;28;20609;-60
2022/04/08 09:04:43;;;;;;;4.03;2.70;;;20.90;54.80;;;;;;4953856;28;20243;-60
2022/04/08 09:07:25;;;;;;;6.13;3.00;;;20.90;54.80;;;;;;4953333;28;20295;-59
2022/04/08 09:09:59;;;;;;;6.22;2.88;;;20.80;54.80;;;;;;4950006;28;20225;-60
2022/04/08 09:12:32;;;;;;;6.75;2.70;;;20.80;54.80;;;;;;4952793;28;20318;-59
2022/04/08 09:15:04;;;;;;;5.90;2.70;;;20.80;54.80;;;;;;4969283;23;20199;-62
2022/04/08 09:17:36;;;;;;;4.90;2.55;;;20.80;54.80;;;;;;4934456;28;20207;-59
2022/04/08 09:20:07;;;;;;;5.57;2.97;;;20.70;54.70;;;;;;4947676;29;20305;-59
2022/04/08 09:22:37;;;;;;;6.10;2.97;;;20.70;54.80;;;;;;4953439;28;20570;-61
2022/04/08 09:25:11;;;;;;;3.42;2.47;;;20.70;54.80;;;;;;4943143;28;20911;-59
2022/04/08 09:27:44;;;;;;;3.92;2.50;;;20.70;54.80;;;;;;4933725;29;20202;-61
2022/04/08 09:30:22;;;;;;;4.93;2.92;;;20.70;54.80;;;;;;4946973;28;20229;-61
2022/04/08 09:32:54;;;;;;;3.60;2.53;;;20.70;54.80;;;;;;4950886;28;20281;-60
2022/04/08 09:35:25;;;;;;;4.07;2.53;;;20.60;54.80;;;;;;4934777;28;20195;-51
2022/04/08 09:38:03;;;;;;;4.78;2.58;;;20.60;54.80;;;;;;4932663;28;20218;-59
2022/04/08 09:40:44;;;;;;;4.43;2.58;;;20.60;54.80;;;;;;4950518;29;20223;-54
2022/04/08 09:43:17;;;;;;;3.40;2.40;;;20.60;54.90;;;;;;4950720;28;20214;-57
2022/04/08 09:45:48;;;;;;;4.40;2.40;;;20.50;54.90;;;;;;4949707;29;20290;-59
2022/04/08 09:48:19;;;;;;;4.55;2.40;;;20.50;54.90;;;;;;4951018;28;20293;-56
2022/04/08 09:50:52;;;;;;;3.88;2.40;;;20.50;54.90;;;;;;4951488;28;20337;-54
2022/04/08 09:53:24;;;;;;;4.18;2.50;;;20.50;54.90;;;;;;4951061;28;20313;-53
2022/04/08 09:55:55;;;;;;;4.68;2.70;;;20.50;54.90;;;;;;4942081;28;20196;-53
2022/04/08 09:58:29;;;;;;;3.95;2.50;;;20.50;55.00;;;;;;4931599;29;20278;-54
2022/04/08 10:01:00;;;;;;;4.07;2.35;;;20.40;54.90;;;;;;4951102;28;20222;-60
2022/04/08 10:03:32;;;;;;;4.43;2.85;;;20.40;55.00;;;;;;4951433;28;20289;-54
2022/04/08 10:06:03;;;;;;;4.25;2.10;;;20.40;55.00;;;;;;4931912;29;20740;-57
2022/04/08 10:08:34;;;;;;;2.95;2.10;;;20.40;55.00;;;;;;4950315;29;20298;-58
2022/04/08 10:11:14;;;;;;;3.88;2.00;;;20.30;55.00;;;;;;4949668;28;20230;-57
2022/04/08 10:14:01;;;;;;;3.60;2.13;;;20.30;55.00;;;;;;4951311;28;20257;-58
2022/04/08 10:16:35;;;;;;;4.25;2.35;;;20.30;55.00;;;;;;4951518;28;20290;-59
2022/04/08 10:19:07;;;;;;;3.42;2.38;;;20.30;55.60;;;;;;4950978;28;20715;-56
2022/04/08 10:21:42;;;;;;;3.55;2.10;;;20.30;55.00;;;;;;4950752;28;20302;-61
2022/04/08 10:24:15;;;;;;;5.18;2.45;;;20.30;55.00;;;;;;4932393;29;20282;-59
2022/04/08 10:27:05;;;;;;;3.70;2.47;;;20.20;55.00;;;;;;4950778;29;20231;-62
2022/04/08 10:29:38;;;;;;;3.95;2.20;;;20.30;55.00;;;;;;4951269;28;20223;-58
2022/04/08 10:32:16;;;;;;;4.22;2.30;;;20.30;55.10;;;;;;4950689;28;20796;-59
2022/04/08 10:34:47;;;;;;;5.00;2.58;;;20.20;55.10;;;;;;4949977;28;20245;-61
2022/04/08 10:37:20;;;;;;;3.60;2.00;;;20.20;55.10;;;;;;4950963;28;20294;-57
2022/04/08 10:40:02;;;;;;;3.83;2.35;;;20.20;55.10;;;;;;4950591;28;20710;-63
2022/04/08 10:42:34;;;;;;;2.95;1.90;;;20.20;55.10;;;;;;4950295;28;20194;-62
2022/04/08 10:45:16;;;;;;;3.63;2.42;;;20.20;55.10;;;;;;4950399;28;20195;-61
2022/04/08 10:47:51;;;;;;;3.35;2.45;;;20.10;55.10;;;;;;4950874;28;20273;-60
2022/04/08 10:50:28;;;;;;;3.22;2.17;;;20.10;55.10;;;;;;4950024;28;20321;-54
2022/04/08 10:53:10;;;;;;;5.10;2.60;;;20.10;55.10;;;;;;4950501;28;20699;-54
2022/04/08 10:55:53;;;;;;;4.10;2.53;;;20.10;55.10;;;;;;4950511;28;20199;-57
2022/04/08 10:58:36;;;;;;;3.05;2.10;;;20.10;55.20;;;;;;4950390;28;20262;-62
2022/04/08 11:01:19;;;;;;;2.60;2.03;;;20.10;55.20;;;;;;4950327;28;20318;-61
2022/04/08 11:03:57;;;;;;;3.97;2.40;;;20.00;55.20;;;;;;4931453;29;20380;-58
2022/04/08 11:06:29;;;;;;;5.50;2.85;;;20.00;55.10;;;;;;4949550;29;20195;-53
2022/04/08 11:09:05;;;;;;;4.30;2.58;;;20.00;55.20;;;;;;4931241;29;20299;-57
2022/04/08 11:11:37;;;;;;;3.33;2.20;;;20.00;55.20;;;;;;4949455;29;20206;-62
2022/04/08 11:14:08;;;;;;;3.97;2.42;;;20.00;55.20;;;;;;4950357;28;20329;-55
2022/04/08 11:16:42;;;;;;;3.65;2.65;;;20.00;55.20;;;;;;4950719;28;20290;-61
2022/04/08 11:19:13;;;;;;;3.67;2.10;;;19.90;55.20;;;;;;4931486;28;20298;-58
2022/04/08 11:21:44;;;;;;;3.22;2.08;;;19.90;55.20;;;;;;4950768;29;20239;-55
2022/04/08 11:24:16;;;;;;;4.38;2.25;;;19.90;55.20;;;;;;4950539;28;20289;-56
2022/04/08 11:26:49;;;;;;;3.67;1.98;;;19.90;55.20;;;;;;4950174;28;20631;-61
2022/04/08 11:29:21;;;;;;;4.13;2.40;;;19.90;55.30;;;;;;4949968;28;20219;-56
2022/04/08 11:31:54;;;;;;;3.83;2.10;;;19.90;55.30;;;;;;4941280;28;20278;-59
2022/04/08 11:34:28;;;;;;;3.60;2.33;;;19.90;55.30;;;;;;4949357;29;20290;-60
2022/04/08 11:36:59;;;;;;;3.60;2.20;;;19.80;55.30;;;;;;4950742;28;20285;-60
2022/04/08 11:39:30;;;;;;;4.25;2.00;;;19.80;55.30;;;;;;4949449;28;20237;-58
2022/04/08 11:42:03;;;;;;;4.10;2.00;;;19.80;55.30;;;;;;4949970;28;20199;-61
2022/04/08 11:44:34;;;;;;;3.88;2.10;;;19.80;55.40;;;;;;4930777;29;20206;-62
2022/04/08 11:47:16;;;;;;;4.30;2.20;;;19.80;55.30;;;;;;4950739;28;20223;-62
2022/04/08 11:49:46;;;;;;;3.90;2.45;;;19.80;55.30;;;;;;4953834;28;20226;-62
2022/04/08 11:52:17;;;;;;;3.20;2.05;;;19.80;55.30;;;;;;4953147;28;20279;-54
2022/04/08 11:54:50;;;;;;;2.92;1.88;;;19.80;55.30;;;;;;4953571;28;20199;-53
2022/04/08 11:57:30;;;;;;;3.40;2.22;;;19.80;55.40;;;;;;4956345;28;21037;-56
2022/04/08 12:00:02;;;;;;;3.35;2.00;;;19.70;55.40;;;;;;4956423;28;20309;-57
2022/04/08 12:02:34;;;;;;;3.72;1.88;;;19.70;56.00;;;;;;4954916;28;20734;-60
2022/04/08 12:05:04;;;;;;;3.92;2.03;;;19.70;56.20;;;;;;4954377;28;20293;-58
2022/04/08 12:07:35;;;;;;;3.40;2.25;;;19.70;56.00;;;;;;4943421;28;20282;-60
2022/04/08 12:10:06;;;;;;;3.47;2.08;;;19.70;56.00;;;;;;4935259;29;20915;-60
2022/04/08 12:12:37;;;;;;;4.25;2.50;;;19.70;55.90;;;;;;4953965;29;20289;-59
2022/04/08 12:15:15;;;;;;;2.17;1.48;;;19.70;55.90;;;;;;4954964;28;20203;-57
2022/04/08 12:17:47;;;;;;;2.97;1.80;;;19.60;55.90;;;;;;4954492;28;20254;-59
2022/04/08 12:20:19;;;;;;;3.15;1.95;;;19.60;55.80;;;;;;4954550;28;20250;-59
2022/04/08 12:22:50;;;;;;;3.22;1.77;;;19.60;55.80;;;;;;4954613;28;20285;-57
2022/04/08 12:25:21;;;;;;;2.63;1.67;;;19.60;55.80;;;;;;4953153;28;20286;-58
2022/04/08 12:27:59;;;;;;;3.05;1.85;;;19.60;55.80;;;;;;4934879;29;20767;-57
2022/04/08 12:30:31;;;;;;;2.75;1.73;;;19.60;55.80;;;;;;4934837;29;20223;-56
2022/04/08 12:33:03;;;;;;;3.70;2.05;;;19.60;55.80;;;;;;4934781;29;20223;-59
2022/04/08 12:35:34;;;;;;;3.17;1.90;;;19.60;55.80;;;;;;4934834;29;20254;-58
2022/04/08 12:38:05;;;;;;;3.75;1.80;;;19.60;55.70;;;;;;4934934;29;20286;-56
2022/04/08 12:40:35;;;;;;;2.13;1.77;;;19.60;55.80;;;;;;4935054;29;21716;-60
2022/04/08 12:43:06;;;;;;;3.45;1.90;;;19.50;55.60;;;;;;4934712;29;20286;-54
2022/04/08 12:45:37;;;;;;;2.38;1.75;;;19.50;56.20;;;;;;4934917;29;20199;-58
2022/04/08 12:48:10;;;;;;;2.58;1.60;;;19.50;55.60;;;;;;4935207;29;20298;-60
2022/04/08 12:50:41;;;;;;;3.70;1.80;;;19.50;55.60;;;;;;4935022;29;20310;-57
2022/04/08 12:53:11;;;;;;;4.13;1.90;;;19.50;55.70;;;;;;4934883;29;20317;-56
2022/04/08 12:55:42;;;;;;;2.55;1.60;;;19.40;55.60;;;;;;4936960;29;20294;-56
2022/04/08 12:58:12;;;;;;;2.83;1.67;;;19.40;55.60;;;;;;4952772;28;20635;-56
2022/04/08 13:00:43;;;;;;;3.05;1.83;;;19.40;55.70;;;;;;4953592;28;20310;-58
2022/04/08 13:03:15;;;;;;;2.60;1.65;;;19.40;55.70;;;;;;4951729;28;20250;-58
2022/04/08 13:05:46;;;;;;;2.22;1.70;;;19.40;55.70;;;;;;4934349;29;20735;-58
2022/04/08 13:08:16;;;;;;;3.15;1.95;;;19.40;55.60;;;;;;4934171;29;20208;-58
2022/04/08 13:10:47;;;;;;;2.75;1.70;;;19.40;55.60;;;;;;4936354;29;20318;-58
2022/04/08 13:13:17;;;;;;;2.67;1.58;;;19.30;55.60;;;;;;4953390;28;20297;-58
2022/04/08 13:15:48;;;;;;;2.45;1.77;;;19.30;55.60;;;;;;4953859;28;20214;-59
2022/04/08 13:18:20;;;;;;;2.70;2.08;;;19.30;55.60;;;;;;4953228;28;20225;-57
2022/04/08 13:20:50;;;;;;;2.60;1.48;;;19.30;55.60;;;;;;4953089;28;20298;-57
2022/04/08 13:23:21;;;;;;;4.97;1.88;;;19.30;55.60;;;;;;4953452;28;20282;-58
2022/04/08 13:25:51;;;;;;;2.50;1.80;;;19.30;55.60;;;;;;4950789;28;20297;-59
2022/04/08 13:28:22;;;;;;;3.20;1.80;;;19.20;55.60;;;;;;4934070;29;20258;-59
2022/04/08 13:30:52;;;;;;;3.90;1.70;;;19.20;55.60;;;;;;4934235;29;20293;-57
2022/04/08 13:33:25;;;;;;;2.25;1.60;;;19.20;55.60;;;;;;4933946;29;20644;-58
2022/04/08 13:35:56;;;;;;;2.70;1.80;;;19.20;55.60;;;;;;4934061;29;20727;-57
2022/04/08 13:38:27;;;;;;;3.17;1.92;;;19.20;55.60;;;;;;4933536;29;20200;-60
2022/04/08 13:40:57;;;;;;;1.80;1.45;;;19.20;55.60;;;;;;4941556;29;20195;-60
2022/04/08 13:43:28;;;;;;;2.78;1.60;;;19.20;55.60;;;;;;4952930;28;20286;-56
2022/04/08 13:45:59;;;;;;;2.55;1.75;;;19.10;55.60;;;;;;4953319;28;20234;-59
2022/04/08 13:48:31;;;;;;;3.28;1.80;;;19.10;55.60;;;;;;4952886;28;20217;-59
2022/04/08 13:51:01;;;;;;;2.25;1.77;;;19.10;55.60;;;;;;4952977;28;20715;-59
2022/04/08 13:53:32;;;;;;;3.72;1.70;;;19.10;55.60;;;;;;4952934;28;20233;-59
2022/04/08 13:56:03;;;;;;;2.95;1.80;;;19.10;55.60;;;;;;4952292;28;20282;-57
2022/04/08 13:58:33;;;;;;;2.13;1.50;;;19.10;55.60;;;;;;4952522;28;20623;-59
2022/04/08 14:01:04;;;;;;;2.58;1.75;;;19.10;55.90;;;;;;4952780;28;20285;-56
2022/04/08 14:03:36;;;;;;;4.38;1.88;;;19.10;55.70;;;;;;4950228;28;20281;-58
2022/04/08 14:06:06;;;;;;;2.35;1.63;;;19.00;55.70;;;;;;4933393;29;20291;-57
2022/04/08 14:08:37;;;;;;;2.70;1.63;;;19.00;55.60;;;;;;4933252;29;20250;-56
2022/04/08 14:11:07;;;;;;;2.17;1.75;;;19.00;55.60;;;;;;4935212;29;20289;-52
2022/04/08 14:13:38;;;;;;;2.83;1.60;;;19.00;55.60;;;;;;4951736;28;20261;-58
2022/04/08 14:16:08;;;;;;;1.73;1.45;;;19.00;55.60;;;;;;4953046;28;20253;-58
2022/04/08 14:18:41;;;;;;;2.60;1.65;;;19.00;55.60;;;;;;4952444;28;20282;-59
2022/04/08 14:21:12;;;;;;;3.17;1.42;;;18.90;55.60;;;;;;4952472;28;20293;-59
2022/04/08 14:23:44;;;;;;;2.58;1.30;;;18.90;55.60;;;;;;4952692;28;20714;-59
2022/04/08 14:26:15;;;;;;;2.58;1.50;;;18.90;55.60;;;;;;4949608;28;20207;-59